sensor_id;sensor_type;location;lat;lon;timestamp;P1;durP1;ratioP1;P2;durP2;ratioP2
46377;SDS011;32083;47.360;9.650;2024-03-22T05:01:16;2.95;;;2.60;;
46377;SDS011;32083;47.360;9.650;2024-03-22T05:03:42;6.45;;;2.60;;
46377;SDS011;32083;47.360;9.650;2024-03-22T05:06:08;3.60;;;2.72;;
46377;SDS011;32083;47.360;9.650;2024-03-22T05:08:34;3.35;;;2.50;;
46377;SDS011;32083;47.360;9.650;2024-03-22T05:11:02;2.92;;;2.60;;
46377;SDS011;32083;47.360;9.650;2024-03-22T05:13:28;3.35;;;2.55;;
46377;SDS011;32083;47.360;9.650;2024-03-22T05:15:54;4.88;;;2.92;;
46377;SDS011;32083;47.360;9.650;2024-03-22T05:18:20;4.30;;;2.58;;
46377;SDS011;32083;47.360;9.650;2024-03-22T05:20:46;3.70;;;2.85;;
46377;SDS011;32083;47.360;9.650;2024-03-22T05:23:12;5.90;;;2.97;;
46377;SDS011;32083;47.360;9.650;2024-03-22T05:25:39;5.43;;;3.33;;
46377;SDS011;32083;47.360;9.650;2024-03-22T05:28:05;5.57;;;3.72;;
46377;SDS011;32083;47.360;9.650;2024-03-22T05:30:31;5.03;;;3.72;;
46377;SDS011;32083;47.360;9.650;2024-03-22T05:32:57;4.25;;;3.47;;
46377;SDS011;32083;47.360;9.650;2024-03-22T05:35:23;4.60;;;2.80;;
46377;SDS011;32083;47.360;9.650;2024-03-22T05:37:49;3.50;;;3.13;;
46377;SDS011;32083;47.360;9.650;2024-03-22T05:40:15;3.97;;;2.95;;
46377;SDS011;32083;47.360;9.650;2024-03-22T05:42:42;3.58;;;2.60;;
46377;SDS011;32083;47.360;9.650;2024-03-22T05:45:08;5.07;;;3.40;;
46377;SDS011;32083;47.360;9.650;2024-03-22T05:47:34;3.67;;;2.67;;
46377;SDS011;32083;47.360;9.650;2024-03-22T05:50:02;6.78;;;2.67;;
46377;SDS011;32083;47.360;9.650;2024-03-22T05:52:29;4.45;;;3.35;;
46377;SDS011;32083;47.360;9.650;2024-03-22T05:54:55;5.35;;;3.50;;
46377;SDS011;32083;47.360;9.650;2024-03-22T05:57:22;5.75;;;3.17;;
46377;SDS011;32083;47.360;9.650;2024-03-22T05:59:48;5.85;;;2.88;;
46377;SDS011;32083;47.360;9.650;2024-03-22T06:02:14;4.85;;;2.38;;
46377;SDS011;32083;47.360;9.650;2024-03-22T06:04:41;5.72;;;3.05;;
46377;SDS011;32083;47.360;9.650;2024-03-22T06:07:07;3.50;;;2.53;;
46377;SDS011;32083;47.360;9.650;2024-03-22T06:09:33;3.65;;;2.00;;
46377;SDS011;32083;47.360;9.650;2024-03-22T06:12:05;4.88;;;3.63;;
46377;SDS011;32083;47.360;9.650;2024-03-22T06:14:31;9.55;;;3.70;;
46377;SDS011;32083;47.360;9.650;2024-03-22T06:16:58;6.28;;;4.10;;
46377;SDS011;32083;47.360;9.650;2024-03-22T06:19:24;6.32;;;4.20;;
46377;SDS011;32083;47.360;9.650;2024-03-22T06:21:50;5.53;;;3.85;;
46377;SDS011;32083;47.360;9.650;2024-03-22T06:24:17;6.43;;;4.68;;
46377;SDS011;32083;47.360;9.650;2024-03-22T06:26:43;10.35;;;4.85;;
46377;SDS011;32083;47.360;9.650;2024-03-22T06:29:08;5.65;;;4.45;;
46377;SDS011;32083;47.360;9.650;2024-03-22T06:31:34;7.72;;;4.60;;
46377;SDS011;32083;47.360;9.650;2024-03-22T06:34:01;5.35;;;4.25;;
46377;SDS011;32083;47.360;9.650;2024-03-22T06:36:31;4.65;;;3.88;;
46377;SDS011;32083;47.360;9.650;2024-03-22T06:39:00;5.53;;;2.65;;
46377;SDS011;32083;47.360;9.650;2024-03-22T06:41:27;2.58;;;2.28;;
46377;SDS011;32083;47.360;9.650;2024-03-22T06:43:53;4.13;;;2.53;;
46377;SDS011;32083;47.360;9.650;2024-03-22T06:46:19;3.15;;;2.50;;
46377;SDS011;32083;47.360;9.650;2024-03-22T06:48:45;4.10;;;2.50;;
46377;SDS011;32083;47.360;9.650;2024-03-22T06:51:12;6.60;;;4.53;;
46377;SDS011;32083;47.360;9.650;2024-03-22T06:53:38;9.82;;;4.32;;
46377;SDS011;32083;47.360;9.650;2024-03-22T06:56:04;5.30;;;3.70;;
46377;SDS011;32083;47.360;9.650;2024-03-22T06:58:30;5.10;;;3.95;;
46377;SDS011;32083;47.360;9.650;2024-03-22T07:00:56;5.13;;;3.38;;
46377;SDS011;32083;47.360;9.650;2024-03-22T07:03:22;4.95;;;3.30;;
46377;SDS011;32083;47.360;9.650;2024-03-22T07:05:48;3.97;;;3.50;;
46377;SDS011;32083;47.360;9.650;2024-03-22T07:08:14;5.95;;;3.70;;
46377;SDS011;32083;47.360;9.650;2024-03-22T07:10:40;7.25;;;4.68;;
46377;SDS011;32083;47.360;9.650;2024-03-22T07:13:07;4.90;;;4.35;;
46377;SDS011;32083;47.360;9.650;2024-03-22T07:15:33;6.13;;;4.82;;
46377;SDS011;32083;47.360;9.650;2024-03-22T07:17:59;6.38;;;4.30;;
46377;SDS011;32083;47.360;9.650;2024-03-22T07:20:25;7.15;;;2.22;;
46377;SDS011;32083;47.360;9.650;2024-03-22T07:22:52;3.78;;;2.10;;
46377;SDS011;32083;47.360;9.650;2024-03-22T07:25:18;4.40;;;2.20;;
46377;SDS011;32083;47.360;9.650;2024-03-22T07:27:44;3.50;;;2.10;;
46377;SDS011;32083;47.360;9.650;2024-03-22T07:30:11;2.30;;;2.10;;
46377;SDS011;32083;47.360;9.650;2024-03-22T07:32:37;2.08;;;1.88;;
46377;SDS011;32083;47.360;9.650;2024-03-22T07:35:03;3.03;;;2.47;;
46377;SDS011;32083;47.360;9.650;2024-03-22T07:37:30;3.47;;;2.30;;
46377;SDS011;32083;47.360;9.650;2024-03-22T07:39:56;3.65;;;2.10;;
46377;SDS011;32083;47.360;9.650;2024-03-22T07:42:22;2.83;;;1.85;;
46377;SDS011;32083;47.360;9.650;2024-03-22T07:44:48;2.47;;;1.92;;
46377;SDS011;32083;47.360;9.650;2024-03-22T07:47:14;3.70;;;1.73;;
46377;SDS011;32083;47.360;9.650;2024-03-22T07:49:40;2.58;;;1.60;;
46377;SDS011;32083;47.360;9.650;2024-03-22T07:52:06;4.20;;;1.73;;
46377;SDS011;32083;47.360;9.650;2024-03-22T07:54:32;3.20;;;1.85;;
46377;SDS011;32083;47.360;9.650;2024-03-22T07:56:57;3.30;;;2.30;;
46377;SDS011;32083;47.360;9.650;2024-03-22T07:59:23;3.53;;;1.80;;
46377;SDS011;32083;47.360;9.650;2024-03-22T08:01:50;4.22;;;1.75;;
46377;SDS011;32083;47.360;9.650;2024-03-22T08:04:15;2.60;;;1.88;;
46377;SDS011;32083;47.360;9.650;2024-03-22T08:06:41;12.10;;;2.33;;
46377;SDS011;32083;47.360;9.650;2024-03-22T08:09:07;4.90;;;1.65;;
46377;SDS011;32083;47.360;9.650;2024-03-22T08:11:33;2.30;;;1.73;;
46377;SDS011;32083;47.360;9.650;2024-03-22T08:13:59;2.47;;;1.85;;
46377;SDS011;32083;47.360;9.650;2024-03-22T08:16:29;2.85;;;2.08;;
46377;SDS011;32083;47.360;9.650;2024-03-22T08:18:55;3.67;;;2.08;;
46377;SDS011;32083;47.360;9.650;2024-03-22T08:21:22;3.72;;;1.80;;
46377;SDS011;32083;47.360;9.650;2024-03-22T08:23:48;4.13;;;2.30;;
46377;SDS011;32083;47.360;9.650;2024-03-22T08:26:14;4.53;;;1.95;;
46377;SDS011;32083;47.360;9.650;2024-03-22T08:28:40;2.88;;;2.40;;
46377;SDS011;32083;47.360;9.650;2024-03-22T08:31:06;2.72;;;2.00;;
46377;SDS011;32083;47.360;9.650;2024-03-22T08:33:32;4.18;;;2.35;;
46377;SDS011;32083;47.360;9.650;2024-03-22T08:35:57;8.68;;;2.00;;
46377;SDS011;32083;47.360;9.650;2024-03-22T08:38:23;3.95;;;2.17;;
46377;SDS011;32083;47.360;9.650;2024-03-22T08:40:50;5.22;;;1.90;;
46377;SDS011;32083;47.360;9.650;2024-03-22T08:43:15;4.72;;;2.00;;
46377;SDS011;32083;47.360;9.650;2024-03-22T08:45:41;3.85;;;1.95;;
46377;SDS011;32083;47.360;9.650;2024-03-22T08:48:07;3.08;;;2.08;;
46377;SDS011;32083;47.360;9.650;2024-03-22T08:50:33;2.20;;;1.90;;
46377;SDS011;32083;47.360;9.650;2024-03-22T08:52:59;4.13;;;2.00;;
46377;SDS011;32083;47.360;9.650;2024-03-22T08:55:29;2.78;;;2.10;;
46377;SDS011;32083;47.360;9.650;2024-03-22T08:57:56;3.33;;;2.00;;
46377;SDS011;32083;47.360;9.650;2024-03-22T09:00:21;4.50;;;1.83;;
46377;SDS011;32083;47.360;9.650;2024-03-22T09:02:47;6.57;;;2.33;;
46377;SDS011;32083;47.360;9.650;2024-03-22T09:05:14;4.85;;;1.83;;
46377;SDS011;32083;47.360;9.650;2024-03-22T09:07:40;9.00;;;2.35;;
46377;SDS011;32083;47.360;9.650;2024-03-22T09:10:06;2.72;;;1.88;;
46377;SDS011;32083;47.360;9.650;2024-03-22T09:12:32;3.65;;;1.80;;
46377;SDS011;32083;47.360;9.650;2024-03-22T09:14:58;2.30;;;1.38;;
46377;SDS011;32083;47.360;9.650;2024-03-22T09:17:24;2.10;;;1.40;;
46377;SDS011;32083;47.360;9.650;2024-03-22T09:19:49;2.10;;;1.60;;
46377;SDS011;32083;47.360;9.650;2024-03-22T09:22:15;3.65;;;1.60;;
46377;SDS011;32083;47.360;9.650;2024-03-22T09:24:41;2.28;;;1.55;;
46377;SDS011;32083;47.360;9.650;2024-03-22T09:27:07;5.85;;;2.03;;
46377;SDS011;32083;47.360;9.650;2024-03-22T09:29:36;3.42;;;2.05;;
46377;SDS011;32083;47.360;9.650;2024-03-22T09:32:02;2.97;;;1.98;;
46377;SDS011;32083;47.360;9.650;2024-03-22T09:34:28;1.73;;;1.30;;
46377;SDS011;32083;47.360;9.650;2024-03-22T09:36:58;2.75;;;1.45;;
46377;SDS011;32083;47.360;9.650;2024-03-22T09:39:23;1.88;;;1.58;;
46377;SDS011;32083;47.360;9.650;2024-03-22T09:41:50;2.13;;;1.60;;
46377;SDS011;32083;47.360;9.650;2024-03-22T09:44:18;3.58;;;1.65;;
46377;SDS011;32083;47.360;9.650;2024-03-22T09:46:47;2.97;;;2.00;;
46377;SDS011;32083;47.360;9.650;2024-03-22T09:49:15;4.45;;;1.92;;
46377;SDS011;32083;47.360;9.650;2024-03-22T09:51:43;3.80;;;1.77;;
46377;SDS011;32083;47.360;9.650;2024-03-22T09:54:10;3.55;;;1.77;;
46377;SDS011;32083;47.360;9.650;2024-03-22T09:56:39;4.45;;;2.17;;
46377;SDS011;32083;47.360;9.650;2024-03-22T09:59:07;3.10;;;1.45;;
46377;SDS011;32083;47.360;9.650;2024-03-22T10:01:35;2.17;;;1.33;;
46377;SDS011;32083;47.360;9.650;2024-03-22T10:04:02;3.22;;;1.45;;
46377;SDS011;32083;47.360;9.650;2024-03-22T10:06:31;5.43;;;2.08;;
46377;SDS011;32083;47.360;9.650;2024-03-22T10:09:00;3.53;;;1.38;;
46377;SDS011;32083;47.360;9.650;2024-03-22T10:11:26;2.90;;;1.35;;
46377;SDS011;32083;47.360;9.650;2024-03-22T10:13:52;3.20;;;1.63;;
46377;SDS011;32083;47.360;9.650;2024-03-22T10:16:20;2.63;;;1.23;;
46377;SDS011;32083;47.360;9.650;2024-03-22T10:18:46;2.53;;;1.35;;
46377;SDS011;32083;47.360;9.650;2024-03-22T10:21:16;2.58;;;1.40;;
46377;SDS011;32083;47.360;9.650;2024-03-22T10:23:43;3.95;;;1.33;;
46377;SDS011;32083;47.360;9.650;2024-03-22T10:26:09;4.03;;;1.88;;
46377;SDS011;32083;47.360;9.650;2024-03-22T10:28:36;4.63;;;1.55;;
46377;SDS011;32083;47.360;9.650;2024-03-22T10:31:12;3.30;;;1.42;;
46377;SDS011;32083;47.360;9.650;2024-03-22T10:33:40;3.72;;;1.80;;
46377;SDS011;32083;47.360;9.650;2024-03-22T10:36:06;2.25;;;1.80;;
46377;SDS011;32083;47.360;9.650;2024-03-22T10:38:33;3.70;;;1.27;;
46377;SDS011;32083;47.360;9.650;2024-03-22T10:41:03;3.08;;;1.33;;
46377;SDS011;32083;47.360;9.650;2024-03-22T10:43:30;3.42;;;1.60;;
46377;SDS011;32083;47.360;9.650;2024-03-22T10:46:01;4.93;;;1.38;;
46377;SDS011;32083;47.360;9.650;2024-03-22T10:48:31;2.05;;;1.60;;
46377;SDS011;32083;47.360;9.650;2024-03-22T10:50:59;2.78;;;1.75;;
46377;SDS011;32083;47.360;9.650;2024-03-22T10:53:30;10.88;;;2.00;;
46377;SDS011;32083;47.360;9.650;2024-03-22T10:55:58;2.58;;;1.50;;
46377;SDS011;32083;47.360;9.650;2024-03-22T10:58:26;1.83;;;1.40;;
46377;SDS011;32083;47.360;9.650;2024-03-22T11:00:52;3.40;;;1.50;;
46377;SDS011;32083;47.360;9.650;2024-03-22T11:03:20;4.05;;;1.60;;
46377;SDS011;32083;47.360;9.650;2024-03-22T11:05:54;1.92;;;1.42;;
46377;SDS011;32083;47.360;9.650;2024-03-22T11:10:54;2.38;;;1.85;;
46377;SDS011;32083;47.360;9.650;2024-03-22T11:13:22;2.17;;;1.67;;
46377;SDS011;32083;47.360;9.650;2024-03-22T11:15:50;2.97;;;1.60;;
46377;SDS011;32083;47.360;9.650;2024-03-22T11:18:16;4.65;;;1.58;;
46377;SDS011;32083;47.360;9.650;2024-03-22T11:20:43;2.85;;;1.55;;
46377;SDS011;32083;47.360;9.650;2024-03-22T11:23:13;2.03;;;1.50;;
46377;SDS011;32083;47.360;9.650;2024-03-22T11:25:39;2.95;;;1.60;;
46377;SDS011;32083;47.360;9.650;2024-03-22T11:28:05;2.40;;;1.90;;
46377;SDS011;32083;47.360;9.650;2024-03-22T11:30:32;3.15;;;1.58;;
46377;SDS011;32083;47.360;9.650;2024-03-22T11:33:02;4.15;;;1.98;;
46377;SDS011;32083;47.360;9.650;2024-03-22T11:35:28;3.05;;;1.80;;
46377;SDS011;32083;47.360;9.650;2024-03-22T11:37:54;4.57;;;2.65;;
46377;SDS011;32083;47.360;9.650;2024-03-22T11:40:21;8.13;;;3.58;;
46377;SDS011;32083;47.360;9.650;2024-03-22T11:42:49;6.05;;;3.72;;
46377;SDS011;32083;47.360;9.650;2024-03-22T11:45:17;4.85;;;4.40;;
46377;SDS011;32083;47.360;9.650;2024-03-22T11:47:44;6.75;;;4.45;;
46377;SDS011;32083;47.360;9.650;2024-03-22T11:50:12;4.95;;;4.53;;
46377;SDS011;32083;47.360;9.650;2024-03-22T11:52:40;5.28;;;3.50;;
46377;SDS011;32083;47.360;9.650;2024-03-22T11:55:06;6.13;;;3.95;;
46377;SDS011;32083;47.360;9.650;2024-03-22T11:57:32;4.47;;;3.78;;
46377;SDS011;32083;47.360;9.650;2024-03-22T11:59:59;7.10;;;3.85;;
46377;SDS011;32083;47.360;9.650;2024-03-22T12:02:26;3.70;;;3.40;;
46377;SDS011;32083;47.360;9.650;2024-03-22T12:04:52;6.57;;;3.25;;
46377;SDS011;32083;47.360;9.650;2024-03-22T12:07:18;6.10;;;4.13;;
46377;SDS011;32083;47.360;9.650;2024-03-22T12:09:44;5.50;;;3.78;;
46377;SDS011;32083;47.360;9.650;2024-03-22T12:12:11;4.53;;;3.08;;
46377;SDS011;32083;47.360;9.650;2024-03-22T12:14:38;5.68;;;3.42;;
46377;SDS011;32083;47.360;9.650;2024-03-22T12:17:05;4.85;;;3.33;;
46377;SDS011;32083;47.360;9.650;2024-03-22T12:19:32;4.43;;;3.50;;
46377;SDS011;32083;47.360;9.650;2024-03-22T12:21:58;3.38;;;2.90;;
46377;SDS011;32083;47.360;9.650;2024-03-22T12:24:25;3.72;;;3.42;;
46377;SDS011;32083;47.360;9.650;2024-03-22T12:26:54;4.65;;;3.42;;
46377;SDS011;32083;47.360;9.650;2024-03-22T12:29:20;5.40;;;2.67;;
46377;SDS011;32083;47.360;9.650;2024-03-22T12:31:47;4.13;;;2.97;;
46377;SDS011;32083;47.360;9.650;2024-03-22T12:34:13;5.30;;;2.38;;
46377;SDS011;32083;47.360;9.650;2024-03-22T12:36:39;6.55;;;2.63;;
46377;SDS011;32083;47.360;9.650;2024-03-22T12:39:05;2.78;;;2.42;;
46377;SDS011;32083;47.360;9.650;2024-03-22T12:41:31;2.60;;;2.40;;
46377;SDS011;32083;47.360;9.650;2024-03-22T12:43:58;7.53;;;3.13;;
46377;SDS011;32083;47.360;9.650;2024-03-22T12:46:25;7.03;;;3.13;;
46377;SDS011;32083;47.360;9.650;2024-03-22T12:48:52;4.60;;;3.08;;
46377;SDS011;32083;47.360;9.650;2024-03-22T12:51:19;4.65;;;2.88;;
46377;SDS011;32083;47.360;9.650;2024-03-22T12:53:45;4.05;;;2.88;;
46377;SDS011;32083;47.360;9.650;2024-03-22T12:56:12;4.18;;;2.97;;
46377;SDS011;32083;47.360;9.650;2024-03-22T12:58:38;2.65;;;2.42;;
46377;SDS011;32083;47.360;9.650;2024-03-22T13:01:08;3.97;;;2.40;;
46377;SDS011;32083;47.360;9.650;2024-03-22T13:03:36;4.38;;;2.40;;
46377;SDS011;32083;47.360;9.650;2024-03-22T13:06:05;5.05;;;2.17;;
46377;SDS011;32083;47.360;9.650;2024-03-22T13:08:32;2.75;;;2.13;;
46377;SDS011;32083;47.360;9.650;2024-03-22T13:10:58;2.67;;;2.08;;
46377;SDS011;32083;47.360;9.650;2024-03-22T13:13:24;3.00;;;2.50;;
46377;SDS011;32083;47.360;9.650;2024-03-22T13:15:50;3.30;;;2.42;;
46377;SDS011;32083;47.360;9.650;2024-03-22T13:18:16;3.33;;;2.00;;
46377;SDS011;32083;47.360;9.650;2024-03-22T13:20:43;4.03;;;2.67;;
46377;SDS011;32083;47.360;9.650;2024-03-22T13:23:09;5.15;;;2.33;;
46377;SDS011;32083;47.360;9.650;2024-03-22T13:25:37;3.65;;;2.28;;
46377;SDS011;32083;47.360;9.650;2024-03-22T13:28:03;4.75;;;2.17;;
46377;SDS011;32083;47.360;9.650;2024-03-22T13:30:30;3.03;;;2.00;;
46377;SDS011;32083;47.360;9.650;2024-03-22T13:32:57;3.17;;;2.20;;
46377;SDS011;32083;47.360;9.650;2024-03-22T13:35:24;5.75;;;2.30;;
46377;SDS011;32083;47.360;9.650;2024-03-22T13:37:50;2.95;;;2.25;;
46377;SDS011;32083;47.360;9.650;2024-03-22T13:40:16;3.13;;;2.22;;
46377;SDS011;32083;47.360;9.650;2024-03-22T13:42:42;3.17;;;2.45;;
46377;SDS011;32083;47.360;9.650;2024-03-22T13:45:08;3.42;;;2.55;;
46377;SDS011;32083;47.360;9.650;2024-03-22T13:47:34;6.43;;;2.75;;
46377;SDS011;32083;47.360;9.650;2024-03-22T13:50:03;9.75;;;3.05;;
46377;SDS011;32083;47.360;9.650;2024-03-22T13:52:30;4.35;;;2.90;;
46377;SDS011;32083;47.360;9.650;2024-03-22T13:54:56;3.08;;;2.10;;
46377;SDS011;32083;47.360;9.650;2024-03-22T13:57:25;3.90;;;2.85;;
46377;SDS011;32083;47.360;9.650;2024-03-22T13:59:51;6.10;;;2.72;;
46377;SDS011;32083;47.360;9.650;2024-03-22T14:02:17;3.70;;;2.80;;
46377;SDS011;32083;47.360;9.650;2024-03-22T14:04:44;5.32;;;2.50;;
46377;SDS011;32083;47.360;9.650;2024-03-22T14:07:10;4.05;;;2.45;;
46377;SDS011;32083;47.360;9.650;2024-03-22T14:09:36;2.55;;;2.28;;
46377;SDS011;32083;47.360;9.650;2024-03-22T14:12:02;2.75;;;2.38;;
46377;SDS011;32083;47.360;9.650;2024-03-22T14:14:28;3.95;;;2.63;;
46377;SDS011;32083;47.360;9.650;2024-03-22T14:16:54;3.03;;;2.72;;
46377;SDS011;32083;47.360;9.650;2024-03-22T14:19:20;5.10;;;2.22;;
46377;SDS011;32083;47.360;9.650;2024-03-22T14:21:47;3.50;;;2.60;;
46377;SDS011;32083;47.360;9.650;2024-03-22T14:24:13;3.30;;;2.88;;
46377;SDS011;32083;47.360;9.650;2024-03-22T14:26:39;2.75;;;2.30;;
46377;SDS011;32083;47.360;9.650;2024-03-22T14:29:11;4.25;;;3.03;;
46377;SDS011;32083;47.360;9.650;2024-03-22T14:31:38;3.63;;;2.35;;
46377;SDS011;32083;47.360;9.650;2024-03-22T14:34:07;3.60;;;1.98;;
46377;SDS011;32083;47.360;9.650;2024-03-22T14:36:34;3.60;;;2.47;;
46377;SDS011;32083;47.360;9.650;2024-03-22T14:39:00;2.85;;;2.40;;
46377;SDS011;32083;47.360;9.650;2024-03-22T14:41:31;3.15;;;2.47;;
46377;SDS011;32083;47.360;9.650;2024-03-22T14:43:58;2.75;;;2.20;;
46377;SDS011;32083;47.360;9.650;2024-03-22T14:46:24;3.92;;;2.72;;
46377;SDS011;32083;47.360;9.650;2024-03-22T14:48:53;2.55;;;1.88;;
46377;SDS011;32083;47.360;9.650;2024-03-22T14:51:20;7.05;;;2.50;;
46377;SDS011;32083;47.360;9.650;2024-03-22T14:53:46;2.50;;;2.00;;
46377;SDS011;32083;47.360;9.650;2024-03-22T14:56:12;3.33;;;2.20;;
46377;SDS011;32083;47.360;9.650;2024-03-22T14:58:39;4.65;;;2.33;;
46377;SDS011;32083;47.360;9.650;2024-03-22T15:01:07;4.65;;;2.22;;
46377;SDS011;32083;47.360;9.650;2024-03-22T15:03:34;3.33;;;1.80;;
46377;SDS011;32083;47.360;9.650;2024-03-22T15:06:01;3.42;;;2.15;;
46377;SDS011;32083;47.360;9.650;2024-03-22T15:08:27;3.25;;;2.10;;
46377;SDS011;32083;47.360;9.650;2024-03-22T15:10:53;1.92;;;1.60;;
46377;SDS011;32083;47.360;9.650;2024-03-22T15:13:20;2.40;;;1.58;;
46377;SDS011;32083;47.360;9.650;2024-03-22T15:15:53;3.75;;;1.95;;
46377;SDS011;32083;47.360;9.650;2024-03-22T15:18:24;3.30;;;2.00;;
46377;SDS011;32083;47.360;9.650;2024-03-22T15:20:54;2.33;;;1.48;;
46377;SDS011;32083;47.360;9.650;2024-03-22T15:23:20;2.40;;;1.80;;
46377;SDS011;32083;47.360;9.650;2024-03-22T15:25:46;2.65;;;1.35;;
46377;SDS011;32083;47.360;9.650;2024-03-22T15:28:13;2.75;;;1.95;;
46377;SDS011;32083;47.360;9.650;2024-03-22T15:30:39;3.30;;;1.80;;
46377;SDS011;32083;47.360;9.650;2024-03-22T15:33:07;4.97;;;1.38;;
46377;SDS011;32083;47.360;9.650;2024-03-22T15:35:34;1.83;;;1.48;;
46377;SDS011;32083;47.360;9.650;2024-03-22T15:38:00;2.00;;;1.23;;
46377;SDS011;32083;47.360;9.650;2024-03-22T15:40:29;2.90;;;1.30;;
46377;SDS011;32083;47.360;9.650;2024-03-22T15:42:57;1.23;;;1.00;;
46377;SDS011;32083;47.360;9.650;2024-03-22T15:45:24;2.33;;;1.10;;
46377;SDS011;32083;47.360;9.650;2024-03-22T15:47:50;3.13;;;1.35;;
46377;SDS011;32083;47.360;9.650;2024-03-22T15:50:16;2.58;;;1.27;;
46377;SDS011;32083;47.360;9.650;2024-03-22T15:52:43;3.63;;;1.55;;
46377;SDS011;32083;47.360;9.650;2024-03-22T15:55:10;3.58;;;1.65;;
46377;SDS011;32083;47.360;9.650;2024-03-22T15:57:36;1.70;;;1.13;;
46377;SDS011;32083;47.360;9.650;2024-03-22T16:00:02;3.70;;;1.50;;
46377;SDS011;32083;47.360;9.650;2024-03-22T16:02:29;3.47;;;1.17;;
46377;SDS011;32083;47.360;9.650;2024-03-22T16:04:55;4.10;;;1.35;;
46377;SDS011;32083;47.360;9.650;2024-03-22T16:07:21;3.20;;;1.58;;
46377;SDS011;32083;47.360;9.650;2024-03-22T16:09:47;2.47;;;1.33;;
46377;SDS011;32083;47.360;9.650;2024-03-22T16:12:14;1.48;;;1.33;;
46377;SDS011;32083;47.360;9.650;2024-03-22T16:14:40;3.10;;;1.35;;
46377;SDS011;32083;47.360;9.650;2024-03-22T16:17:06;1.92;;;1.10;;
46377;SDS011;32083;47.360;9.650;2024-03-22T16:19:32;3.78;;;1.70;;
46377;SDS011;32083;47.360;9.650;2024-03-22T16:21:58;4.70;;;1.25;;
46377;SDS011;32083;47.360;9.650;2024-03-22T16:24:24;4.75;;;1.50;;
46377;SDS011;32083;47.360;9.650;2024-03-22T16:26:50;4.07;;;1.33;;
46377;SDS011;32083;47.360;9.650;2024-03-22T16:29:16;4.07;;;1.42;;
46377;SDS011;32083;47.360;9.650;2024-03-22T16:31:44;2.17;;;1.25;;
46377;SDS011;32083;47.360;9.650;2024-03-22T16:34:11;3.95;;;2.17;;
46377;SDS011;32083;47.360;9.650;2024-03-22T16:36:37;3.42;;;1.25;;
46377;SDS011;32083;47.360;9.650;2024-03-22T16:39:03;2.20;;;1.30;;
46377;SDS011;32083;47.360;9.650;2024-03-22T16:41:29;6.13;;;1.48;;
46377;SDS011;32083;47.360;9.650;2024-03-22T16:43:55;2.30;;;1.40;;
46377;SDS011;32083;47.360;9.650;2024-03-22T16:46:21;4.38;;;1.23;;
46377;SDS011;32083;47.360;9.650;2024-03-22T16:48:47;2.45;;;1.60;;
46377;SDS011;32083;47.360;9.650;2024-03-22T16:51:13;3.88;;;2.10;;
46377;SDS011;32083;47.360;9.650;2024-03-22T16:53:39;2.05;;;1.40;;
46377;SDS011;32083;47.360;9.650;2024-03-22T16:56:05;3.70;;;1.40;;
46377;SDS011;32083;47.360;9.650;2024-03-22T16:58:31;2.20;;;1.70;;
46377;SDS011;32083;47.360;9.650;2024-03-22T17:01:04;2.88;;;1.80;;
46377;SDS011;32083;47.360;9.650;2024-03-22T17:03:32;3.22;;;2.35;;
46377;SDS011;32083;47.360;9.650;2024-03-22T17:05:59;3.75;;;2.58;;
46377;SDS011;32083;47.360;9.650;2024-03-22T17:08:26;6.97;;;2.10;;
46377;SDS011;32083;47.360;9.650;2024-03-22T17:10:52;5.22;;;1.80;;
46377;SDS011;32083;47.360;9.650;2024-03-22T17:13:21;3.45;;;2.30;;
46377;SDS011;32083;47.360;9.650;2024-03-22T17:15:48;4.70;;;2.15;;
46377;SDS011;32083;47.360;9.650;2024-03-22T17:18:18;8.15;;;2.22;;
46377;SDS011;32083;47.360;9.650;2024-03-22T17:20:47;4.75;;;2.10;;
46377;SDS011;32083;47.360;9.650;2024-03-22T17:23:13;6.97;;;2.50;;
46377;SDS011;32083;47.360;9.650;2024-03-22T17:25:40;4.15;;;1.88;;
46377;SDS011;32083;47.360;9.650;2024-03-22T17:28:06;2.38;;;2.05;;
46377;SDS011;32083;47.360;9.650;2024-03-22T17:30:33;1.80;;;1.58;;
46377;SDS011;32083;47.360;9.650;2024-03-22T17:33:00;5.50;;;2.63;;
46377;SDS011;32083;47.360;9.650;2024-03-22T17:35:26;3.42;;;1.77;;
46377;SDS011;32083;47.360;9.650;2024-03-22T17:37:56;2.85;;;1.85;;
46377;SDS011;32083;47.360;9.650;2024-03-22T17:40:26;8.18;;;1.80;;
46377;SDS011;32083;47.360;9.650;2024-03-22T17:42:52;3.42;;;2.33;;
46377;SDS011;32083;47.360;9.650;2024-03-22T17:45:18;8.30;;;2.50;;
46377;SDS011;32083;47.360;9.650;2024-03-22T17:47:47;5.75;;;2.30;;
46377;SDS011;32083;47.360;9.650;2024-03-22T17:50:13;3.00;;;1.92;;
46377;SDS011;32083;47.360;9.650;2024-03-22T17:52:39;3.65;;;2.40;;
46377;SDS011;32083;47.360;9.650;2024-03-22T17:55:05;4.05;;;2.47;;
46377;SDS011;32083;47.360;9.650;2024-03-22T17:57:32;4.47;;;2.75;;
46377;SDS011;32083;47.360;9.650;2024-03-22T17:59:58;4.22;;;2.50;;
46377;SDS011;32083;47.360;9.650;2024-03-22T18:02:24;5.10;;;2.63;;
46377;SDS011;32083;47.360;9.650;2024-03-22T18:04:50;4.10;;;2.80;;
46377;SDS011;32083;47.360;9.650;2024-03-22T18:07:16;6.63;;;3.50;;
46377;SDS011;32083;47.360;9.650;2024-03-22T18:09:42;3.22;;;2.50;;
46377;SDS011;32083;47.360;9.650;2024-03-22T18:12:08;6.85;;;4.25;;
46377;SDS011;32083;47.360;9.650;2024-03-22T18:14:35;6.32;;;3.13;;
46377;SDS011;32083;47.360;9.650;2024-03-22T18:17:00;4.63;;;3.03;;
46377;SDS011;32083;47.360;9.650;2024-03-22T18:19:29;5.68;;;2.70;;
46377;SDS011;32083;47.360;9.650;2024-03-22T18:21:55;4.55;;;3.45;;
46377;SDS011;32083;47.360;9.650;2024-03-22T18:24:21;6.55;;;3.13;;
46377;SDS011;32083;47.360;9.650;2024-03-22T18:26:47;6.88;;;3.35;;
46377;SDS011;32083;47.360;9.650;2024-03-22T18:29:14;5.93;;;2.95;;
46377;SDS011;32083;47.360;9.650;2024-03-22T18:31:41;5.53;;;3.20;;
46377;SDS011;32083;47.360;9.650;2024-03-22T18:34:07;6.13;;;3.35;;
46377;SDS011;32083;47.360;9.650;2024-03-22T18:36:33;9.45;;;3.80;;
46377;SDS011;32083;47.360;9.650;2024-03-22T18:38:59;5.95;;;4.57;;
46377;SDS011;32083;47.360;9.650;2024-03-22T18:41:25;7.65;;;3.92;;
46377;SDS011;32083;47.360;9.650;2024-03-22T18:43:52;7.50;;;6.05;;
46377;SDS011;32083;47.360;9.650;2024-03-22T18:46:18;9.70;;;7.05;;
46377;SDS011;32083;47.360;9.650;2024-03-22T18:48:44;9.18;;;6.50;;
46377;SDS011;32083;47.360;9.650;2024-03-22T18:51:10;8.45;;;7.15;;
46377;SDS011;32083;47.360;9.650;2024-03-22T18:53:39;8.82;;;6.30;;
46377;SDS011;32083;47.360;9.650;2024-03-22T18:56:04;6.00;;;4.93;;
46377;SDS011;32083;47.360;9.650;2024-03-22T18:58:31;8.23;;;5.25;;
46377;SDS011;32083;47.360;9.650;2024-03-22T19:00:57;6.05;;;4.75;;
46377;SDS011;32083;47.360;9.650;2024-03-22T19:03:23;6.22;;;4.75;;
46377;SDS011;32083;47.360;9.650;2024-03-22T19:05:49;6.65;;;4.50;;
46377;SDS011;32083;47.360;9.650;2024-03-22T19:08:15;5.45;;;4.93;;
46377;SDS011;32083;47.360;9.650;2024-03-22T19:10:41;8.95;;;5.22;;
46377;SDS011;32083;47.360;9.650;2024-03-22T19:13:08;7.90;;;4.82;;
46377;SDS011;32083;47.360;9.650;2024-03-22T19:15:34;9.30;;;5.28;;
46377;SDS011;32083;47.360;9.650;2024-03-22T19:18:00;9.50;;;6.00;;
46377;SDS011;32083;47.360;9.650;2024-03-22T19:20:28;6.97;;;4.85;;
46377;SDS011;32083;47.360;9.650;2024-03-22T19:22:54;6.10;;;5.43;;
46377;SDS011;32083;47.360;9.650;2024-03-22T19:25:20;8.68;;;6.07;;
46377;SDS011;32083;47.360;9.650;2024-03-22T19:27:47;8.23;;;5.32;;
46377;SDS011;32083;47.360;9.650;2024-03-22T19:30:13;7.10;;;5.20;;
46377;SDS011;32083;47.360;9.650;2024-03-22T19:32:39;6.80;;;5.00;;
46377;SDS011;32083;47.360;9.650;2024-03-22T19:35:06;7.30;;;4.57;;
46377;SDS011;32083;47.360;9.650;2024-03-22T19:37:32;5.80;;;4.60;;
46377;SDS011;32083;47.360;9.650;2024-03-22T19:39:58;6.20;;;4.38;;
46377;SDS011;32083;47.360;9.650;2024-03-22T19:42:24;7.53;;;4.68;;
46377;SDS011;32083;47.360;9.650;2024-03-22T19:44:50;5.35;;;4.10;;
46377;SDS011;32083;47.360;9.650;2024-03-22T19:47:16;4.57;;;3.28;;